Decoded Metar for UHWW (VLADIVOSTOK in RUSSIA) (IATA:VVO) | Meteo·Mobile Aviation Weather
aviador You're here:

UHWW Decoded Metar

VLADIVOSTOK in RUSSIA
Report Time2018-10-23 23:00:00
UTC Time2018-10-23 23:30:37
Flight Rules mvfr MVFR
WindCalm
Visibility7000 m
Phenomena:N/A
Clouds:Few 003 Hf
CeilingNone
Temp04°C (ISA -10)
Dew Point04°C (100% RH)
AAT2.7°C
QNH1016 hPa
Density Alt-571 ft
Elevation604 ft
Report Wrong Elevation
Raw Report
METAR UHWW 232300Z 00000MPS 7000 FEW003 04/04 Q1016 R25L/19//65 NOSIG
RMK QFE761=

Extra information for UHWW:More info

Metar Taf Metar & Taf Last 4 Metars F.Rules Stats Wind Profile Meteogram Temp Stats Airport Information Weather charts Add Link Nearby VenuesMetar ALERT Operation Metar Decoded Social comments